Time;durP1;ratioP1;P1;durP2;ratioP2;P2;SDS_P1;SDS_P2;PMS_P1;PMS_P2;Temp;Humidity;BMP_temperature;BMP_pressure;BME280_temperature;BME280_humidity;BME280_pressure;Samples;Min_cycle;Max_cycle;Signal;HPM_P1;HPM_P2
2021/12/14 00:01:53;;;;;;;;;0.00;0.00;13.90;99.90;;;;;;5028547;28;10933;-60
2021/12/14 00:04:28;;;;;;;;;0.00;0.00;13.90;99.90;;;;;;5026239;28;10959;-62
2021/12/14 00:07:04;;;;;;;;;0.00;0.00;13.90;99.90;;;;;;5026095;28;10979;-61
2021/12/14 00:09:36;;;;;;;;;0.00;0.00;13.90;99.90;;;;;;5025054;28;13379;-62
2021/12/14 00:17:25;;;;;;;;;0.00;0.00;13.80;99.90;;;;;;5030338;28;11053;-62
2021/12/14 00:20:01;;;;;;;;;2.00;0.00;13.90;99.90;;;;;;5029760;28;12612;-62
2021/12/14 00:24:06;;;;;;;;;0.00;0.00;13.90;99.90;;;;;;5039555;28;11123;-61
2021/12/14 00:25:45;;;;;;;;;0.00;0.00;13.90;99.90;;;;;;5044834;28;12157;-62
2021/12/14 00:28:27;;;;;;;;;0.00;0.00;13.90;99.90;;;;;;5050775;28;11022;-62
2021/12/14 00:31:02;;;;;;;;;1.00;1.00;13.90;99.90;;;;;;5014136;28;11066;-62
2021/12/14 00:33:39;;;;;;;;;0.00;0.00;13.90;99.90;;;;;;5017223;28;10972;-62
2021/12/14 00:36:13;;;;;;;;;0.00;0.00;13.90;99.90;;;;;;5018027;28;11023;-63
2021/12/14 00:38:54;;;;;;;;;0.00;0.00;13.90;99.90;;;;;;5028404;28;10777;-63
2021/12/14 00:41:34;;;;;;;;;0.00;0.00;13.90;99.90;;;;;;5030395;28;12688;-63
2021/12/14 00:44:06;;;;;;;;;0.00;0.00;13.90;99.90;;;;;;5022880;28;10955;-63
2021/12/14 00:46:37;;;;;;;;;0.00;0.00;13.90;99.90;;;;;;5029357;28;11048;-61
2021/12/14 00:49:13;;;;;;;;;0.00;0.00;13.90;99.90;;;;;;5045181;28;10886;-62
2021/12/14 00:51:43;;;;;;;;;0.00;0.00;13.90;99.90;;;;;;5041854;28;11047;-61
2021/12/14 00:54:18;;;;;;;;;0.00;0.00;13.90;99.90;;;;;;5047215;28;10968;-62
2021/12/14 00:56:51;;;;;;;;;0.00;0.00;13.90;99.90;;;;;;5012954;28;11149;-62
2021/12/14 00:59:25;;;;;;;;;0.00;0.00;13.90;99.90;;;;;;5047540;28;11018;-62
2021/12/14 01:02:14;;;;;;;;;1.00;1.00;13.90;99.90;;;;;;5034580;28;10962;-64
2021/12/14 01:04:50;;;;;;;;;0.50;0.50;13.90;99.90;;;;;;5008501;28;11111;-63
2021/12/14 01:07:25;;;;;;;;;0.00;0.00;13.90;99.90;;;;;;5030542;28;11310;-66
2021/12/14 01:09:58;;;;;;;;;1.00;0.00;13.90;99.90;;;;;;5015206;28;11138;-64
2021/12/14 01:12:46;;;;;;;;;0.00;0.00;13.90;99.90;;;;;;5041673;28;11188;-60
2021/12/14 01:15:32;;;;;;;;;0.00;0.00;13.90;99.90;;;;;;5024071;28;11946;-63
2021/12/14 01:18:17;;;;;;;;;0.00;0.00;13.90;99.90;;;;;;5040185;28;11085;-62
2021/12/14 01:21:08;;;;;;;;;0.00;0.00;14.00;99.90;;;;;;5044629;28;11131;-64
2021/12/14 01:23:40;;;;;;;;;0.00;0.00;13.90;99.90;;;;;;5023127;28;12020;-60
2021/12/14 01:26:17;;;;;;;;;0.00;0.00;13.90;99.90;;;;;;5032516;28;12263;-64
2021/12/14 01:28:49;;;;;;;;;0.00;0.00;13.90;99.90;;;;;;5046433;28;11206;-67
2021/12/14 01:31:29;;;;;;;;;0.00;0.00;13.90;99.90;;;;;;5020724;28;11255;-65
2021/12/14 01:34:22;;;;;;;;;0.00;0.00;13.90;99.90;;;;;;5027108;28;11407;-65
2021/12/14 01:36:58;;;;;;;;;0.00;0.00;13.90;99.90;;;;;;5028602;28;11859;-64
2021/12/14 01:42:11;;;;;;;;;1.50;0.00;13.90;99.90;;;;;;5044871;28;11499;-64
2021/12/14 01:45:00;;;;;;;;;0.00;0.00;13.90;99.90;;;;;;5029035;28;11067;-62
2021/12/14 01:47:44;;;;;;;;;0.00;0.00;13.90;99.90;;;;;;5038055;28;11272;-64
2021/12/14 01:50:39;;;;;;;;;0.00;0.00;13.90;99.90;;;;;;5043959;28;11218;-60
2021/12/14 01:53:14;;;;;;;;;0.00;0.00;13.90;99.90;;;;;;5034442;28;11001;-61
2021/12/14 01:55:51;;;;;;;;;0.25;0.25;13.90;99.90;;;;;;5036102;28;11207;-63
2021/12/14 01:58:35;;;;;;;;;0.00;0.00;13.90;99.90;;;;;;5045141;28;11177;-62
2021/12/14 02:01:19;;;;;;;;;0.00;0.00;13.90;99.90;;;;;;5025844;28;10841;-65
2021/12/14 02:03:58;;;;;;;;;0.00;0.00;13.90;99.90;;;;;;5029994;28;11260;-62
2021/12/14 02:06:34;;;;;;;;;0.00;0.00;13.90;99.90;;;;;;5032312;28;11287;-63
2021/12/14 02:09:13;;;;;;;;;0.50;0.50;13.90;99.90;;;;;;5030582;28;11092;-62
2021/12/14 02:11:53;;;;;;;;;0.00;0.00;13.90;99.90;;;;;;5015885;28;10642;-63
2021/12/14 02:14:25;;;;;;;;;0.25;0.25;13.90;99.90;;;;;;5033780;28;11004;-63
2021/12/14 02:17:01;;;;;;;;;0.00;0.00;13.90;99.90;;;;;;5026189;28;11053;-62
2021/12/14 02:19:35;;;;;;;;;1.00;1.00;13.90;99.90;;;;;;5032562;28;11480;-64
2021/12/14 02:22:09;;;;;;;;;0.00;0.00;13.90;99.90;;;;;;5030209;28;11103;-64
2021/12/14 02:24:49;;;;;;;;;1.00;1.00;13.90;99.90;;;;;;5027666;28;11156;-63
2021/12/14 02:27:21;;;;;;;;;0.00;0.00;13.90;99.90;;;;;;5031824;28;11125;-62
2021/12/14 02:30:02;;;;;;;;;0.00;0.00;13.90;99.90;;;;;;5023801;28;11217;-61
2021/12/14 02:32:35;;;;;;;;;0.00;0.00;14.00;99.90;;;;;;5017836;28;11101;-60
2021/12/14 02:35:10;;;;;;;;;0.00;0.00;13.90;99.90;;;;;;5031427;28;11450;-59
2021/12/14 02:37:56;;;;;;;;;0.00;0.00;13.90;99.90;;;;;;5022935;28;11040;-61
2021/12/14 02:40:54;;;;;;;;;0.00;0.00;13.90;99.90;;;;;;5030627;28;11737;-62
2021/12/14 02:43:34;;;;;;;;;0.00;0.00;13.90;99.90;;;;;;5021469;28;10957;-62
2021/12/14 02:46:20;;;;;;;;;0.00;0.00;13.90;99.90;;;;;;5013608;28;11217;-61
2021/12/14 02:48:59;;;;;;;;;0.00;0.00;13.90;99.90;;;;;;5051122;28;11464;-62
2021/12/14 02:51:35;;;;;;;;;0.00;0.00;13.90;99.90;;;;;;5030711;28;11183;-62
2021/12/14 02:54:16;;;;;;;;;0.00;0.00;13.90;99.90;;;;;;5030601;28;11053;-62
2021/12/14 02:56:59;;;;;;;;;1.00;1.00;13.90;99.90;;;;;;5035741;28;11222;-61
2021/12/14 02:59:35;;;;;;;;;0.25;0.25;13.90;99.90;;;;;;5025894;28;10888;-60
2021/12/14 03:02:10;;;;;;;;;0.00;0.00;13.90;99.90;;;;;;5012295;28;11360;-59
2021/12/14 03:04:50;;;;;;;;;0.00;0.00;13.90;99.90;;;;;;5030413;28;11043;-62
2021/12/14 03:07:25;;;;;;;;;2.00;1.00;13.90;99.90;;;;;;5011368;28;11349;-61
2021/12/14 03:12:54;;;;;;;;;3.00;3.00;13.90;99.90;;;;;;5030556;28;11484;-63
2021/12/14 03:15:48;;;;;;;;;2.00;2.00;13.80;99.90;;;;;;5046976;28;11529;-62
2021/12/14 03:18:33;;;;;;;;;0.50;0.50;13.90;99.90;;;;;;5012676;28;11211;-60
2021/12/14 03:21:31;;;;;;;;;1.00;1.00;13.90;99.90;;;;;;5035047;28;12234;-61
2021/12/14 03:24:07;;;;;;;;;0.00;0.00;13.90;99.90;;;;;;5028611;28;11442;-60
2021/12/14 03:26:43;;;;;;;;;0.75;0.75;13.90;99.90;;;;;;5026439;28;11402;-58
2021/12/14 03:29:28;;;;;;;;;1.00;1.00;13.80;99.90;;;;;;5017728;28;11456;-60
2021/12/14 03:32:05;;;;;;;;;1.25;1.25;13.80;99.90;;;;;;5005662;28;11471;-60
2021/12/14 03:34:41;;;;;;;;;1.00;1.00;13.80;99.90;;;;;;5032497;28;11054;-61
2021/12/14 03:37:24;;;;;;;;;4.00;2.00;13.80;99.90;;;;;;5026294;28;11500;-59
2021/12/14 03:40:00;;;;;;;;;2.25;0.75;13.80;99.90;;;;;;5027769;28;11476;-60
2021/12/14 03:42:39;;;;;;;;;1.50;1.50;13.90;99.90;;;;;;5028329;28;11518;-60
2021/12/14 03:45:20;;;;;;;;;1.00;1.00;13.80;99.90;;;;;;5030177;28;12454;-60
2021/12/14 03:47:59;;;;;;;;;0.25;0.25;13.80;99.90;;;;;;5026941;28;11136;-61
2021/12/14 03:50:41;;;;;;;;;0.00;0.00;13.70;99.90;;;;;;5026363;28;11169;-61
2021/12/14 03:53:13;;;;;;;;;0.00;0.00;13.80;99.90;;;;;;5032151;28;10951;-61
2021/12/14 03:55:55;;;;;;;;;0.00;0.00;13.80;99.90;;;;;;5037105;28;11589;-61
2021/12/14 03:58:35;;;;;;;;;0.00;0.00;13.70;99.90;;;;;;5025468;28;11278;-60
2021/12/14 04:01:25;;;;;;;;;0.00;0.00;13.70;99.90;;;;;;5024631;28;11110;-61
2021/12/14 04:04:35;;;;;;;;;0.00;0.00;13.70;99.90;;;;;;5013894;28;11355;-61
2021/12/14 04:07:17;;;;;;;;;0.00;0.00;13.70;99.90;;;;;;5023683;28;11829;-63
2021/12/14 04:10:13;;;;;;;;;0.00;0.00;13.70;99.90;;;;;;5024114;28;11036;-62
2021/12/14 04:13:00;;;;;;;;;0.00;0.00;13.70;99.90;;;;;;5001584;28;11657;-62
2021/12/14 04:15:47;;;;;;;;;0.00;0.00;13.70;99.90;;;;;;5028588;28;10973;-65
2021/12/14 04:18:31;;;;;;;;;0.00;0.00;13.70;99.90;;;;;;5029643;28;11144;-63
2021/12/14 04:21:11;;;;;;;;;0.00;0.00;13.70;99.90;;;;;;5029219;28;11268;-63
2021/12/14 04:23:52;;;;;;;;;0.00;0.00;13.70;99.90;;;;;;5031936;28;11120;-63
2021/12/14 04:26:26;;;;;;;;;0.00;0.00;13.70;99.90;;;;;;5032645;28;11901;-62
2021/12/14 04:29:03;;;;;;;;;0.00;0.00;13.70;99.90;;;;;;5026582;28;11482;-60
2021/12/14 04:31:36;;;;;;;;;0.00;0.00;13.60;99.90;;;;;;5019587;28;11459;-62
2021/12/14 04:34:22;;;;;;;;;0.00;0.00;13.60;99.90;;;;;;5025991;28;11127;-62
2021/12/14 04:36:56;;;;;;;;;0.00;0.00;13.60;99.90;;;;;;5027165;28;11618;-63
2021/12/14 04:54:02;;;;;;;;;0.00;0.00;13.50;99.90;;;;;;5030051;28;11635;-62
2021/12/14 04:56:39;;;;;;;;;0.00;0.00;13.50;99.90;;;;;;5017225;28;11456;-61
2021/12/14 04:59:23;;;;;;;;;0.00;0.00;13.40;99.90;;;;;;5029999;28;11425;-61
2021/12/14 05:02:15;;;;;;;;;0.00;0.00;13.40;99.90;;;;;;5026081;28;11454;-62
2021/12/14 05:05:10;;;;;;;;;0.00;0.00;13.20;99.90;;;;;;5021491;28;11488;-58
2021/12/14 05:10:59;;;;;;;;;0.00;0.00;12.90;99.90;;;;;;5028638;28;11460;-60
2021/12/14 05:13:36;;;;;;;;;0.00;0.00;12.90;99.90;;;;;;5024540;28;11511;-59
2021/12/14 05:16:09;;;;;;;;;0.00;0.00;13.00;99.90;;;;;;5008537;28;11459;-61
2021/12/14 05:18:51;;;;;;;;;0.00;0.00;12.90;99.90;;;;;;5016478;28;11487;-62
2021/12/14 05:21:30;;;;;;;;;0.00;0.00;12.90;99.90;;;;;;5021809;28;11480;-63
2021/12/14 05:24:05;;;;;;;;;0.75;0.75;12.80;99.90;;;;;;5030468;28;11523;-61
2021/12/14 05:26:43;;;;;;;;;0.00;0.00;12.80;99.90;;;;;;5006760;28;11668;-61
2021/12/14 05:29:14;;;;;;;;;0.00;0.00;12.70;99.90;;;;;;5043805;28;11480;-63
2021/12/14 05:31:48;;;;;;;;;0.00;0.00;12.70;99.90;;;;;;5018913;28;11472;-59
2021/12/14 05:34:25;;;;;;;;;1.00;0.00;12.50;99.90;;;;;;5028359;28;11435;-60
2021/12/14 05:37:03;;;;;;;;;0.00;0.00;12.50;99.90;;;;;;5006207;28;11503;-60
2021/12/14 05:39:55;;;;;;;;;0.00;0.00;12.50;99.90;;;;;;5021349;28;11490;-60
2021/12/14 05:45:55;;;;;;;;;0.00;0.00;12.60;99.90;;;;;;5030741;28;11499;-60
2021/12/14 05:48:36;;;;;;;;;0.00;0.00;12.60;99.90;;;;;;5001077;28;11439;-59
2021/12/14 05:51:11;;;;;;;;;0.00;0.00;12.50;99.90;;;;;;5003015;28;11511;-58
2021/12/14 05:53:46;;;;;;;;;0.00;0.00;12.40;99.90;;;;;;5008025;28;11465;-59
2021/12/14 05:56:26;;;;;;;;;0.00;0.00;12.30;99.90;;;;;;5027472;28;11465;-60
2021/12/14 05:59:04;;;;;;;;;0.00;0.00;12.20;99.90;;;;;;5026235;28;12141;-59
2021/12/14 06:01:37;;;;;;;;;0.00;0.00;12.10;99.90;;;;;;5008027;28;11429;-59
2021/12/14 06:04:11;;;;;;;;;0.00;0.00;12.00;99.90;;;;;;5021787;28;11829;-60
2021/12/14 06:06:54;;;;;;;;;0.00;0.00;12.00;99.90;;;;;;5024422;28;11447;-60
2021/12/14 06:09:29;;;;;;;;;0.00;0.00;11.90;99.90;;;;;;5020671;28;11440;-60
2021/12/14 06:12:23;;;;;;;;;0.00;0.00;12.00;99.90;;;;;;5007608;28;11463;-60
2021/12/14 06:14:58;;;;;;;;;0.00;0.00;12.00;99.90;;;;;;5026272;28;12562;-60
2021/12/14 06:17:33;;;;;;;;;0.00;0.00;11.90;99.90;;;;;;5024332;28;11585;-59
2021/12/14 06:20:15;;;;;;;;;0.00;0.00;11.70;99.90;;;;;;5010757;28;11421;-60
2021/12/14 06:22:48;;;;;;;;;0.75;0.00;11.60;99.90;;;;;;5032817;28;11473;-59
2021/12/14 06:25:39;;;;;;;;;1.00;1.00;11.50;99.90;;;;;;5028000;28;11714;-60
2021/12/14 06:28:10;;;;;;;;;3.75;3.75;11.50;99.90;;;;;;5031209;28;11575;-60
2021/12/14 06:30:46;;;;;;;;;9.25;9.25;11.60;99.90;;;;;;5041035;28;11502;-59
2021/12/14 06:33:16;;;;;;;;;9.25;7.25;11.50;99.90;;;;;;5040369;28;11503;-59
2021/12/14 06:35:50;;;;;;;;;5.75;5.75;11.50;99.90;;;;;;5041335;28;11485;-59
2021/12/14 06:38:37;;;;;;;;;7.00;7.00;11.50;99.90;;;;;;5026778;28;11537;-59
2021/12/14 06:41:16;;;;;;;;;7.25;7.25;11.50;99.90;;;;;;5032777;28;11482;-59
2021/12/14 06:43:58;;;;;;;;;8.00;8.00;11.60;99.90;;;;;;5025875;28;11539;-59
2021/12/14 06:46:37;;;;;;;;;12.00;10.25;11.60;99.90;;;;;;5030267;28;11453;-59
2021/12/14 06:49:17;;;;;;;;;15.00;15.00;11.50;99.90;;;;;;5026295;28;11537;-59
2021/12/14 06:51:52;;;;;;;;;19.00;19.00;11.50;99.90;;;;;;5023946;28;11470;-59
2021/12/14 06:54:37;;;;;;;;;26.25;26.00;11.40;99.90;;;;;;5016314;28;11703;-60
2021/12/14 06:57:08;;;;;;;;;23.75;23.50;11.40;99.90;;;;;;5043051;28;11519;-59
2021/12/14 07:00:00;;;;;;;;;31.50;31.00;11.40;99.90;;;;;;5045917;28;12364;-58
2021/12/14 07:02:49;;;;;;;;;31.25;31.25;11.30;99.90;;;;;;5027321;28;11610;-59
2021/12/14 07:05:49;;;;;;;;;29.25;29.25;11.40;99.90;;;;;;5036586;28;11544;-59
2021/12/14 07:08:26;;;;;;;;;27.50;27.50;11.40;99.90;;;;;;5012408;28;11604;-61
2021/12/14 07:10:57;;;;;;;;;31.25;31.25;11.30;99.90;;;;;;5031863;28;11601;-61
2021/12/14 07:13:38;;;;;;;;;30.50;30.25;11.30;99.90;;;;;;5021672;28;11543;-61
2021/12/14 07:16:43;;;;;;;;;30.75;30.50;11.10;99.90;;;;;;5039709;28;11516;-62
2021/12/14 07:19:16;;;;;;;;;28.00;27.75;11.20;99.90;;;;;;5028649;28;12488;-59
2021/12/14 07:21:50;;;;;;;;;27.00;26.75;11.30;99.90;;;;;;5014646;28;11554;-60
2021/12/14 07:24:29;;;;;;;;;23.25;23.25;11.30;99.90;;;;;;5049266;28;11548;-60
2021/12/14 07:27:18;;;;;;;;;18.25;18.25;11.20;99.90;;;;;;5044395;28;11504;-61
2021/12/14 07:29:50;;;;;;;;;5.75;5.25;11.20;99.90;;;;;;5045314;28;12989;-61
2021/12/14 07:32:47;;;;;;;;;8.75;8.75;11.30;99.90;;;;;;5044748;28;11631;-61
2021/12/14 07:35:27;;;;;;;;;3.25;3.25;11.20;99.90;;;;;;5041104;28;11532;-62
2021/12/14 07:38:05;;;;;;;;;4.75;4.75;11.20;99.90;;;;;;5032672;28;12269;-59
2021/12/14 07:40:41;;;;;;;;;3.50;3.50;11.20;99.90;;;;;;5013858;28;11702;-58
2021/12/14 07:43:20;;;;;;;;;7.00;7.00;11.20;99.90;;;;;;5030056;28;11664;-60
2021/12/14 07:45:52;;;;;;;;;9.50;9.50;11.20;99.90;;;;;;5039500;28;11708;-61
2021/12/14 07:48:49;;;;;;;;;8.00;8.00;11.10;99.90;;;;;;5049399;28;11653;-58
2021/12/14 07:51:20;;;;;;;;;4.75;3.25;11.10;99.90;;;;;;5008211;28;11579;-59
2021/12/14 07:53:58;;;;;;;;;5.00;5.00;11.20;99.90;;;;;;5027551;28;11784;-59
2021/12/14 07:56:34;;;;;;;;;2.75;1.50;11.10;99.90;;;;;;5026529;28;11555;-59
2021/12/14 07:59:23;;;;;;;;;1.25;1.25;11.00;99.90;;;;;;5041326;28;11538;-60
2021/12/14 08:02:24;;;;;;;;;0.00;0.00;11.00;99.90;;;;;;5044370;28;11532;-59
2021/12/14 08:04:55;;;;;;;;;0.00;0.00;11.00;99.90;;;;;;5045260;28;11515;-59
2021/12/14 08:07:27;;;;;;;;;0.00;0.00;11.00;99.90;;;;;;5029333;28;11517;-58
2021/12/14 08:10:14;;;;;;;;;0.00;0.00;11.00;99.90;;;;;;5013984;28;12359;-59
2021/12/14 08:13:05;;;;;;;;;0.00;0.00;11.10;99.90;;;;;;5047763;28;11434;-60
2021/12/14 08:15:58;;;;;;;;;0.00;0.00;11.10;99.90;;;;;;5025957;28;11514;-60
2021/12/14 08:18:34;;;;;;;;;0.00;0.00;11.10;99.90;;;;;;5026397;28;11497;-59
2021/12/14 08:21:26;;;;;;;;;0.00;0.00;11.10;99.90;;;;;;5040401;28;11490;-59
2021/12/14 08:24:00;;;;;;;;;0.00;0.00;11.10;99.90;;;;;;5033042;28;11476;-60
2021/12/14 08:26:33;;;;;;;;;0.00;0.00;11.10;99.90;;;;;;5022313;28;11490;-60
2021/12/14 08:29:26;;;;;;;;;0.00;0.00;11.00;99.90;;;;;;5027288;28;11641;-59
2021/12/14 08:32:08;;;;;;;;;0.00;0.00;11.10;99.90;;;;;;5029808;28;11596;-58
2021/12/14 08:34:48;;;;;;;;;0.00;0.00;11.10;99.90;;;;;;5032568;28;11449;-58
2021/12/14 08:37:43;;;;;;;;;0.00;0.00;11.00;99.90;;;;;;5025385;28;11548;-58
2021/12/14 08:40:22;;;;;;;;;0.00;0.00;11.00;99.90;;;;;;5040121;28;11489;-58
2021/12/14 08:43:08;;;;;;;;;0.00;0.00;11.00;99.90;;;;;;5028005;28;11456;-57
2021/12/14 08:46:02;;;;;;;;;0.00;0.00;11.00;99.90;;;;;;5041974;28;11483;-58
2021/12/14 08:48:40;;;;;;;;;0.00;0.00;11.00;99.90;;;;;;5026993;28;11550;-58
2021/12/14 08:51:16;;;;;;;;;0.00;0.00;11.00;99.90;;;;;;5041080;28;11499;-58
2021/12/14 08:53:58;;;;;;;;;0.00;0.00;10.90;99.90;;;;;;5018536;28;11617;-58
2021/12/14 08:56:33;;;;;;;;;0.00;0.00;10.90;99.90;;;;;;5040171;28;11421;-59
2021/12/14 08:59:07;;;;;;;;;0.00;0.00;10.90;99.90;;;;;;5029194;28;11477;-59
2021/12/14 09:01:43;;;;;;;;;0.00;0.00;10.90;99.90;;;;;;5042109;28;11576;-59
2021/12/14 09:04:16;;;;;;;;;0.00;0.00;10.90;99.90;;;;;;5047483;28;12595;-59
2021/12/14 09:06:53;;;;;;;;;0.00;0.00;10.90;99.90;;;;;;5039583;28;11633;-59
2021/12/14 09:09:25;;;;;;;;;0.00;0.00;10.90;99.90;;;;;;5048437;28;11449;-60
2021/12/14 09:12:07;;;;;;;;;0.00;0.00;10.90;99.90;;;;;;5030161;28;11539;-59
2021/12/14 09:14:41;;;;;;;;;0.00;0.00;10.90;99.90;;;;;;5025778;28;11461;-59
2021/12/14 09:17:15;;;;;;;;;0.00;0.00;10.90;99.90;;;;;;5030100;28;11654;-59
2021/12/14 09:19:53;;;;;;;;;0.00;0.00;10.90;99.90;;;;;;5029230;28;11613;-60
2021/12/14 09:22:29;;;;;;;;;0.00;0.00;10.90;99.90;;;;;;5045668;28;11500;-60
2021/12/14 09:25:01;;;;;;;;;0.00;0.00;10.80;99.90;;;;;;5045947;28;11505;-60
2021/12/14 09:27:36;;;;;;;;;0.00;0.00;10.80;99.90;;;;;;5029481;28;11649;-60
2021/12/14 09:30:11;;;;;;;;;0.00;0.00;10.80;99.90;;;;;;5036035;28;12224;-60
2021/12/14 09:32:45;;;;;;;;;0.00;0.00;10.80;99.90;;;;;;5041127;28;11553;-60
2021/12/14 09:35:22;;;;;;;;;0.00;0.00;10.80;99.90;;;;;;5019888;28;11508;-61
2021/12/14 09:37:57;;;;;;;;;0.00;0.00;10.80;99.90;;;;;;5045484;28;11795;-60
2021/12/14 09:40:40;;;;;;;;;0.00;0.00;10.80;99.90;;;;;;5045144;28;11517;-59
2021/12/14 09:43:12;;;;;;;;;0.00;0.00;10.80;99.90;;;;;;5041252;28;11462;-60
2021/12/14 09:45:48;;;;;;;;;0.00;0.00;10.80;99.90;;;;;;5019986;28;11685;-58
2021/12/14 09:48:23;;;;;;;;;0.00;0.00;10.80;99.90;;;;;;5032920;28;11487;-59
2021/12/14 09:51:02;;;;;;;;;0.00;0.00;10.80;99.90;;;;;;5037604;28;11491;-58
2021/12/14 09:53:38;;;;;;;;;0.00;0.00;10.80;99.90;;;;;;5046228;28;11500;-59
2021/12/14 09:56:12;;;;;;;;;0.00;0.00;10.80;99.90;;;;;;5042195;28;11492;-58
2021/12/14 09:58:59;;;;;;;;;0.00;0.00;10.80;99.90;;;;;;5044975;28;12129;-58
2021/12/14 10:01:34;;;;;;;;;0.00;0.00;10.70;99.90;;;;;;5025864;28;11450;-58
2021/12/14 10:04:15;;;;;;;;;0.00;0.00;10.70;99.90;;;;;;5039077;28;11484;-59
2021/12/14 10:06:49;;;;;;;;;0.00;0.00;10.70;99.90;;;;;;5040434;28;11501;-58
2021/12/14 10:09:26;;;;;;;;;0.00;0.00;10.70;99.90;;;;;;5051868;28;11492;-59
2021/12/14 10:12:17;;;;;;;;;1.00;0.00;10.70;99.90;;;;;;5030307;28;11486;-60
2021/12/14 10:14:50;;;;;;;;;0.00;0.00;10.70;99.90;;;;;;5040139;28;12150;-59
2021/12/14 10:17:25;;;;;;;;;0.00;0.00;10.70;99.90;;;;;;5020344;28;11488;-59
2021/12/14 10:19:57;;;;;;;;;0.00;0.00;10.70;99.90;;;;;;5043794;28;11518;-60
2021/12/14 10:22:31;;;;;;;;;0.00;0.00;10.70;99.90;;;;;;5028072;28;11535;-59
2021/12/14 10:25:12;;;;;;;;;0.00;0.00;10.70;99.90;;;;;;5011579;28;11521;-60
2021/12/14 10:27:43;;;;;;;;;0.00;0.00;10.70;99.90;;;;;;5026982;28;11610;-59
2021/12/14 10:30:45;;;;;;;;;0.00;0.00;10.70;99.90;;;;;;5027205;28;11478;-60
2021/12/14 10:33:16;;;;;;;;;0.00;0.00;10.70;99.90;;;;;;5030973;28;11536;-59
2021/12/14 10:35:53;;;;;;;;;0.00;0.00;10.70;99.90;;;;;;5032733;28;11482;-59
2021/12/14 10:38:34;;;;;;;;;0.00;0.00;10.70;99.90;;;;;;5027356;28;11456;-59
2021/12/14 10:44:08;;;;;;;;;0.00;0.00;10.60;99.90;;;;;;5046000;28;11587;-59
2021/12/14 10:46:46;;;;;;;;;0.00;0.00;10.70;99.90;;;;;;5034383;28;11428;-59
2021/12/14 10:49:19;;;;;;;;;0.00;0.00;10.70;99.90;;;;;;5038782;28;11434;-58
2021/12/14 10:51:58;;;;;;;;;0.00;0.00;10.60;99.90;;;;;;5027936;28;12154;-59
2021/12/14 10:54:29;;;;;;;;;0.00;0.00;10.60;99.90;;;;;;5046083;28;11600;-58
2021/12/14 10:57:04;;;;;;;;;0.00;0.00;10.60;99.90;;;;;;5031461;28;11468;-58
2021/12/14 10:59:39;;;;;;;;;0.00;0.00;10.60;99.90;;;;;;5041747;28;11495;-59
2021/12/14 11:02:12;;;;;;;;;0.00;0.00;10.60;99.90;;;;;;5055092;28;11544;-59
2021/12/14 11:04:55;;;;;;;;;0.25;0.00;10.70;99.90;;;;;;5023062;28;11455;-59
2021/12/14 11:07:30;;;;;;;;;0.00;0.00;10.60;99.90;;;;;;5031563;28;11620;-59
2021/12/14 11:10:12;;;;;;;;;0.00;0.00;10.60;99.90;;;;;;5044897;28;12508;-58
2021/12/14 11:12:45;;;;;;;;;0.00;0.00;10.60;99.90;;;;;;5049485;28;11567;-58
2021/12/14 11:15:23;;;;;;;;;0.00;0.00;10.60;99.90;;;;;;5053294;28;11468;-58
2021/12/14 11:18:11;;;;;;;;;0.00;0.00;10.60;99.90;;;;;;5046098;28;11469;-58
2021/12/14 11:21:00;;;;;;;;;0.00;0.00;10.60;99.90;;;;;;5027346;28;11626;-58
2021/12/14 11:23:40;;;;;;;;;0.00;0.00;10.60;99.90;;;;;;5047375;28;12210;-58
2021/12/14 11:26:19;;;;;;;;;0.00;0.00;10.60;99.90;;;;;;5046348;28;11553;-58
2021/12/14 11:28:56;;;;;;;;;1.00;0.00;10.50;99.90;;;;;;5032739;28;11425;-58
2021/12/14 11:31:45;;;;;;;;;0.00;0.00;10.60;99.90;;;;;;5042268;28;11516;-58
2021/12/14 11:34:31;;;;;;;;;0.00;0.00;10.60;99.90;;;;;;5038259;28;11621;-58
2021/12/14 11:37:08;;;;;;;;;0.00;0.00;10.50;99.90;;;;;;5031718;28;11473;-58
2021/12/14 11:39:50;;;;;;;;;0.00;0.00;10.50;99.90;;;;;;5032044;28;11595;-58
2021/12/14 11:42:20;;;;;;;;;0.00;0.00;10.50;99.90;;;;;;5039809;28;11534;-59
2021/12/14 11:45:01;;;;;;;;;1.00;0.00;10.50;99.90;;;;;;5051870;28;11513;-58
2021/12/14 11:47:43;;;;;;;;;0.00;0.00;10.50;99.90;;;;;;5050251;28;11670;-58
2021/12/14 11:50:35;;;;;;;;;0.00;0.00;10.50;99.90;;;;;;5029970;28;11501;-59
2021/12/14 11:53:06;;;;;;;;;0.00;0.00;10.50;99.90;;;;;;5042761;28;11428;-59
2021/12/14 11:55:52;;;;;;;;;0.00;0.00;10.40;99.90;;;;;;5045644;28;12261;-58
2021/12/14 11:58:24;;;;;;;;;0.00;0.00;10.50;99.90;;;;;;5052484;28;11573;-58
2021/12/14 12:01:16;;;;;;;;;0.00;0.00;10.50;99.90;;;;;;5046596;28;11657;-59
2021/12/14 12:03:57;;;;;;;;;0.00;0.00;10.50;99.90;;;;;;5044254;28;11475;-57
2021/12/14 12:06:47;;;;;;;;;0.00;0.00;10.50;99.90;;;;;;5027211;28;11481;-57
2021/12/14 12:12:10;;;;;;;;;0.00;0.00;10.40;99.90;;;;;;5045244;28;11455;-58
2021/12/14 12:15:14;;;;;;;;;0.00;0.00;10.50;99.90;;;;;;5039993;28;11660;-58
2021/12/14 12:17:58;;;;;;;;;0.00;0.00;10.50;99.90;;;;;;5011260;28;11556;-58
2021/12/14 12:20:38;;;;;;;;;0.00;0.00;10.50;99.90;;;;;;4997013;28;11549;-58
2021/12/14 12:23:26;;;;;;;;;0.00;0.00;10.50;99.90;;;;;;5009545;28;11706;-58
2021/12/14 12:26:09;;;;;;;;;0.00;0.00;10.50;99.90;;;;;;5015350;28;11543;-58
2021/12/14 12:28:45;;;;;;;;;0.00;0.00;10.40;99.90;;;;;;5009885;28;11567;-58
2021/12/14 12:31:20;;;;;;;;;0.00;0.00;10.40;99.90;;;;;;5010621;28;11619;-62
2021/12/14 12:33:57;;;;;;;;;0.00;0.00;10.40;99.90;;;;;;5006985;28;11471;-58
2021/12/14 12:36:38;;;;;;;;;0.00;0.00;10.40;99.90;;;;;;5010121;28;11518;-58
2021/12/14 12:39:15;;;;;;;;;1.00;0.00;10.40;99.90;;;;;;5012212;28;11562;-58
2021/12/14 12:41:51;;;;;;;;;0.00;0.00;10.40;99.90;;;;;;5007040;28;11506;-58
2021/12/14 12:44:26;;;;;;;;;0.00;0.00;10.40;99.90;;;;;;5010672;28;12276;-58
2021/12/14 12:47:00;;;;;;;;;0.00;0.00;10.40;99.90;;;;;;5013532;28;11525;-58
2021/12/14 12:49:37;;;;;;;;;0.00;0.00;10.40;99.90;;;;;;5004513;28;11515;-58
2021/12/14 12:52:16;;;;;;;;;0.00;0.00;10.50;99.90;;;;;;5010108;28;11511;-58
2021/12/14 12:55:00;;;;;;;;;0.00;0.00;10.40;99.90;;;;;;5006403;28;11503;-58
2021/12/14 12:57:57;;;;;;;;;0.00;0.00;10.40;99.90;;;;;;5005182;28;11494;-58
2021/12/14 13:00:41;;;;;;;;;0.00;0.00;10.40;99.90;;;;;;5007771;28;12369;-60
2021/12/14 13:03:42;;;;;;;;;0.00;0.00;10.40;99.90;;;;;;5008390;28;11538;-58
2021/12/14 13:06:19;;;;;;;;;0.00;0.00;10.40;99.90;;;;;;5007717;28;11687;-58
2021/12/14 13:08:55;;;;;;;;;0.00;0.00;10.40;99.90;;;;;;5010526;28;11499;-58
2021/12/14 13:11:25;;;;;;;;;0.00;0.00;10.40;99.90;;;;;;5007203;28;12091;-59
2021/12/14 13:14:02;;;;;;;;;0.00;0.00;10.40;99.90;;;;;;5021572;28;11543;-59
2021/12/14 13:16:37;;;;;;;;;0.00;0.00;10.30;99.90;;;;;;5008756;28;11518;-59
2021/12/14 13:19:16;;;;;;;;;0.00;0.00;10.40;99.90;;;;;;5009952;28;11671;-58
2021/12/14 13:21:59;;;;;;;;;0.00;0.00;10.40;99.90;;;;;;5003868;28;11667;-59
2021/12/14 13:24:36;;;;;;;;;0.00;0.00;10.40;99.90;;;;;;5011089;28;12225;-58
2021/12/14 13:27:40;;;;;;;;;0.00;0.00;10.30;99.90;;;;;;5007366;28;11564;-58
2021/12/14 13:30:12;;;;;;;;;0.00;0.00;10.40;99.90;;;;;;5001203;28;11540;-58
2021/12/14 13:32:43;;;;;;;;;0.00;0.00;10.40;99.90;;;;;;5010446;28;11491;-59
2021/12/14 13:35:21;;;;;;;;;0.00;0.00;10.30;99.90;;;;;;5008317;28;12278;-58
2021/12/14 13:38:01;;;;;;;;;0.00;0.00;10.30;99.90;;;;;;5009930;28;11531;-58
2021/12/14 13:40:38;;;;;;;;;0.00;0.00;10.30;99.90;;;;;;5025570;28;11516;-59
2021/12/14 13:43:11;;;;;;;;;0.00;0.00;10.30;99.90;;;;;;5009291;28;11644;-59
2021/12/14 13:45:47;;;;;;;;;0.00;0.00;10.30;99.90;;;;;;5006477;28;11576;-59
2021/12/14 13:48:22;;;;;;;;;0.00;0.00;10.30;99.90;;;;;;5008338;28;12253;-59
2021/12/14 13:50:59;;;;;;;;;0.00;0.00;10.30;99.90;;;;;;5008493;28;11517;-59
2021/12/14 13:53:30;;;;;;;;;0.00;0.00;10.30;99.90;;;;;;5008776;28;11504;-58
2021/12/14 13:56:20;;;;;;;;;0.00;0.00;10.30;99.90;;;;;;5010366;28;11525;-58
2021/12/14 13:58:56;;;;;;;;;0.00;0.00;10.20;99.90;;;;;;5012479;28;11644;-59
2021/12/14 14:01:37;;;;;;;;;0.00;0.00;10.20;99.90;;;;;;5008540;28;11516;-59
2021/12/14 14:04:11;;;;;;;;;0.00;0.00;10.20;99.90;;;;;;5007661;28;11637;-60
2021/12/14 14:06:44;;;;;;;;;0.00;0.00;10.20;99.90;;;;;;5007040;28;11524;-59
2021/12/14 14:09:28;;;;;;;;;0.00;0.00;10.10;99.90;;;;;;5009226;28;11495;-59
2021/12/14 14:12:04;;;;;;;;;0.00;0.00;10.10;99.90;;;;;;4999926;28;11499;-59
2021/12/14 14:14:38;;;;;;;;;0.00;0.00;10.10;99.90;;;;;;5008411;28;11512;-59
2021/12/14 14:17:22;;;;;;;;;0.00;0.00;10.10;99.90;;;;;;5016455;28;12257;-59
2021/12/14 14:20:10;;;;;;;;;0.00;0.00;10.10;99.90;;;;;;5030272;28;11621;-58
2021/12/14 14:22:40;;;;;;;;;0.00;0.00;10.10;99.90;;;;;;5034852;28;11467;-58
2021/12/14 14:25:20;;;;;;;;;0.00;0.00;10.10;99.90;;;;;;5029416;28;11483;-58
2021/12/14 14:27:58;;;;;;;;;0.00;0.00;10.10;99.90;;;;;;5031934;28;11702;-59